sensor_id;sensor_type;location;lat;lon;timestamp;temperature;humidity
47168;DHT22;32931;47.778;17.806;2024-02-23T00:01:53;11.90;98.40
47168;DHT22;32931;47.778;17.806;2024-02-23T00:04:19;11.90;99.00
47168;DHT22;32931;47.778;17.806;2024-02-23T00:06:45;11.90;99.10
47168;DHT22;32931;47.778;17.806;2024-02-23T00:09:11;11.90;99.50
47168;DHT22;32931;47.778;17.806;2024-02-23T00:11:41;11.80;99.60
47168;DHT22;32931;47.778;17.806;2024-02-23T00:14:13;11.80;99.90
47168;DHT22;32931;47.778;17.806;2024-02-23T00:16:39;11.80;99.90
47168;DHT22;32931;47.778;17.806;2024-02-23T00:19:09;11.80;99.90
47168;DHT22;32931;47.778;17.806;2024-02-23T00:21:38;11.80;99.90
47168;DHT22;32931;47.778;17.806;2024-02-23T00:24:06;11.70;99.90
47168;DHT22;32931;47.778;17.806;2024-02-23T00:26:32;11.70;99.90
47168;DHT22;32931;47.778;17.806;2024-02-23T00:28:58;11.60;99.90
47168;DHT22;32931;47.778;17.806;2024-02-23T00:31:24;11.60;99.90
47168;DHT22;32931;47.778;17.806;2024-02-23T00:33:51;11.60;99.90
47168;DHT22;32931;47.778;17.806;2024-02-23T00:36:17;11.60;99.90
47168;DHT22;32931;47.778;17.806;2024-02-23T00:38:43;11.50;99.90
47168;DHT22;32931;47.778;17.806;2024-02-23T00:41:09;11.50;99.90
47168;DHT22;32931;47.778;17.806;2024-02-23T00:43:39;11.50;99.90
47168;DHT22;32931;47.778;17.806;2024-02-23T00:46:06;11.40;99.90
47168;DHT22;32931;47.778;17.806;2024-02-23T00:48:32;11.50;99.90
47168;DHT22;32931;47.778;17.806;2024-02-23T00:50:59;11.50;99.90
47168;DHT22;32931;47.778;17.806;2024-02-23T00:53:25;11.50;99.90
47168;DHT22;32931;47.778;17.806;2024-02-23T00:55:51;11.50;99.90
47168;DHT22;32931;47.778;17.806;2024-02-23T00:58:17;11.50;99.90
47168;DHT22;32931;47.778;17.806;2024-02-23T01:00:44;11.40;99.90
47168;DHT22;32931;47.778;17.806;2024-02-23T01:03:10;11.50;99.90
47168;DHT22;32931;47.778;17.806;2024-02-23T01:05:36;11.40;99.90
47168;DHT22;32931;47.778;17.806;2024-02-23T01:08:04;11.40;99.90
47168;DHT22;32931;47.778;17.806;2024-02-23T01:10:30;11.40;99.90
47168;DHT22;32931;47.778;17.806;2024-02-23T01:12:56;11.40;99.90
47168;DHT22;32931;47.778;17.806;2024-02-23T01:15:23;11.40;99.90
47168;DHT22;32931;47.778;17.806;2024-02-23T01:17:49;11.40;99.90
47168;DHT22;32931;47.778;17.806;2024-02-23T01:20:15;11.40;99.90
47168;DHT22;32931;47.778;17.806;2024-02-23T01:22:41;11.40;99.90
47168;DHT22;32931;47.778;17.806;2024-02-23T01:25:07;11.30;99.90
47168;DHT22;32931;47.778;17.806;2024-02-23T01:27:33;11.30;99.90
47168;DHT22;32931;47.778;17.806;2024-02-23T01:30:00;11.40;99.90
47168;DHT22;32931;47.778;17.806;2024-02-23T01:32:26;11.40;99.90
47168;DHT22;32931;47.778;17.806;2024-02-23T01:34:52;11.30;99.90
47168;DHT22;32931;47.778;17.806;2024-02-23T01:37:18;11.30;99.90
47168;DHT22;32931;47.778;17.806;2024-02-23T01:39:44;11.30;99.90
47168;DHT22;32931;47.778;17.806;2024-02-23T01:42:10;11.30;99.90
47168;DHT22;32931;47.778;17.806;2024-02-23T01:44:36;11.30;99.90
47168;DHT22;32931;47.778;17.806;2024-02-23T01:47:03;11.30;99.90
47168;DHT22;32931;47.778;17.806;2024-02-23T01:49:29;11.30;99.90
47168;DHT22;32931;47.778;17.806;2024-02-23T01:51:57;11.20;99.90
47168;DHT22;32931;47.778;17.806;2024-02-23T01:54:24;11.30;99.90
47168;DHT22;32931;47.778;17.806;2024-02-23T01:56:51;11.30;99.90
47168;DHT22;32931;47.778;17.806;2024-02-23T01:59:18;11.30;99.90
47168;DHT22;32931;47.778;17.806;2024-02-23T02:01:45;11.40;99.90
47168;DHT22;32931;47.778;17.806;2024-02-23T02:04:11;11.40;99.90
47168;DHT22;32931;47.778;17.806;2024-02-23T02:06:38;11.30;99.90
47168;DHT22;32931;47.778;17.806;2024-02-23T02:09:05;11.30;99.90
47168;DHT22;32931;47.778;17.806;2024-02-23T02:11:31;11.40;99.90
47168;DHT22;32931;47.778;17.806;2024-02-23T02:13:57;11.40;99.90
47168;DHT22;32931;47.778;17.806;2024-02-23T02:16:23;11.30;99.90
47168;DHT22;32931;47.778;17.806;2024-02-23T02:18:49;11.30;99.90
47168;DHT22;32931;47.778;17.806;2024-02-23T02:21:16;11.30;99.90
47168;DHT22;32931;47.778;17.806;2024-02-23T02:23:42;11.40;99.90
47168;DHT22;32931;47.778;17.806;2024-02-23T02:26:08;11.40;99.90
47168;DHT22;32931;47.778;17.806;2024-02-23T02:28:34;11.40;99.90
47168;DHT22;32931;47.778;17.806;2024-02-23T02:31:00;11.40;99.90
47168;DHT22;32931;47.778;17.806;2024-02-23T02:33:26;11.30;99.90
47168;DHT22;32931;47.778;17.806;2024-02-23T02:35:52;11.40;99.90
47168;DHT22;32931;47.778;17.806;2024-02-23T02:38:18;11.30;99.90
47168;DHT22;32931;47.778;17.806;2024-02-23T02:40:45;11.40;99.90
47168;DHT22;32931;47.778;17.806;2024-02-23T02:43:11;11.40;99.90
47168;DHT22;32931;47.778;17.806;2024-02-23T02:45:37;11.40;99.90
47168;DHT22;32931;47.778;17.806;2024-02-23T02:48:03;11.40;99.90
47168;DHT22;32931;47.778;17.806;2024-02-23T02:50:31;11.40;99.90
47168;DHT22;32931;47.778;17.806;2024-02-23T02:52:57;11.40;99.90
47168;DHT22;32931;47.778;17.806;2024-02-23T02:55:23;11.40;99.90
47168;DHT22;32931;47.778;17.806;2024-02-23T02:57:49;11.40;99.90
47168;DHT22;32931;47.778;17.806;2024-02-23T03:00:16;11.40;99.90
47168;DHT22;32931;47.778;17.806;2024-02-23T03:02:42;11.40;99.90
47168;DHT22;32931;47.778;17.806;2024-02-23T03:05:08;11.40;99.90
47168;DHT22;32931;47.778;17.806;2024-02-23T03:07:34;11.40;99.90
47168;DHT22;32931;47.778;17.806;2024-02-23T03:10:00;11.40;99.90
47168;DHT22;32931;47.778;17.806;2024-02-23T03:12:27;11.40;99.90
47168;DHT22;32931;47.778;17.806;2024-02-23T03:14:53;11.40;99.90
47168;DHT22;32931;47.778;17.806;2024-02-23T03:17:19;11.40;99.90
47168;DHT22;32931;47.778;17.806;2024-02-23T03:19:45;11.40;99.90
47168;DHT22;32931;47.778;17.806;2024-02-23T03:22:11;11.40;99.90
47168;DHT22;32931;47.778;17.806;2024-02-23T03:24:37;11.30;99.90
47168;DHT22;32931;47.778;17.806;2024-02-23T03:27:04;11.30;99.90
47168;DHT22;32931;47.778;17.806;2024-02-23T03:29:30;11.40;99.90
47168;DHT22;32931;47.778;17.806;2024-02-23T03:31:56;11.40;99.90
47168;DHT22;32931;47.778;17.806;2024-02-23T03:34:22;11.40;99.90
47168;DHT22;32931;47.778;17.806;2024-02-23T03:36:49;11.30;99.90
47168;DHT22;32931;47.778;17.806;2024-02-23T03:39:15;11.30;99.90
47168;DHT22;32931;47.778;17.806;2024-02-23T03:41:41;11.30;99.90
47168;DHT22;32931;47.778;17.806;2024-02-23T03:44:07;11.30;99.90
47168;DHT22;32931;47.778;17.806;2024-02-23T03:46:33;11.30;99.90
47168;DHT22;32931;47.778;17.806;2024-02-23T03:49:00;11.30;99.90
47168;DHT22;32931;47.778;17.806;2024-02-23T03:51:27;11.30;99.90
47168;DHT22;32931;47.778;17.806;2024-02-23T03:53:53;11.30;99.90
47168;DHT22;32931;47.778;17.806;2024-02-23T03:56:19;11.30;99.90
47168;DHT22;32931;47.778;17.806;2024-02-23T03:58:45;11.30;99.90
47168;DHT22;32931;47.778;17.806;2024-02-23T04:01:11;11.30;99.90
47168;DHT22;32931;47.778;17.806;2024-02-23T04:03:37;11.40;99.90
47168;DHT22;32931;47.778;17.806;2024-02-23T04:06:03;11.30;99.90
47168;DHT22;32931;47.778;17.806;2024-02-23T04:08:30;11.30;99.90
47168;DHT22;32931;47.778;17.806;2024-02-23T04:10:57;11.40;99.90
47168;DHT22;32931;47.778;17.806;2024-02-23T04:13:23;11.40;99.90
47168;DHT22;32931;47.778;17.806;2024-02-23T04:15:50;11.40;99.90
47168;DHT22;32931;47.778;17.806;2024-02-23T04:18:16;11.40;99.90
47168;DHT22;32931;47.778;17.806;2024-02-23T04:20:42;11.30;99.90
47168;DHT22;32931;47.778;17.806;2024-02-23T04:23:08;11.30;99.90
47168;DHT22;32931;47.778;17.806;2024-02-23T04:25:34;11.30;99.90
47168;DHT22;32931;47.778;17.806;2024-02-23T04:28:00;11.20;99.90
47168;DHT22;32931;47.778;17.806;2024-02-23T04:30:26;11.10;99.90
47168;DHT22;32931;47.778;17.806;2024-02-23T04:32:52;11.10;99.90
47168;DHT22;32931;47.778;17.806;2024-02-23T04:35:19;11.10;99.90
47168;DHT22;32931;47.778;17.806;2024-02-23T04:37:45;11.00;99.90
47168;DHT22;32931;47.778;17.806;2024-02-23T04:40:11;11.10;99.90
47168;DHT22;32931;47.778;17.806;2024-02-23T04:42:38;11.10;99.90
47168;DHT22;32931;47.778;17.806;2024-02-23T04:45:05;11.10;99.90
47168;DHT22;32931;47.778;17.806;2024-02-23T04:47:31;11.10;99.90
47168;DHT22;32931;47.778;17.806;2024-02-23T04:49:58;11.10;99.90
47168;DHT22;32931;47.778;17.806;2024-02-23T04:52:25;11.10;99.90
47168;DHT22;32931;47.778;17.806;2024-02-23T04:54:51;11.00;99.90
47168;DHT22;32931;47.778;17.806;2024-02-23T04:57:17;11.00;99.90
47168;DHT22;32931;47.778;17.806;2024-02-23T04:59:43;11.00;99.90
47168;DHT22;32931;47.778;17.806;2024-02-23T05:02:10;10.90;99.90
47168;DHT22;32931;47.778;17.806;2024-02-23T05:04:36;10.90;99.90
47168;DHT22;32931;47.778;17.806;2024-02-23T05:07:02;10.90;99.90
47168;DHT22;32931;47.778;17.806;2024-02-23T05:09:28;10.80;99.90
47168;DHT22;32931;47.778;17.806;2024-02-23T05:11:55;10.70;99.90
47168;DHT22;32931;47.778;17.806;2024-02-23T05:14:21;10.70;99.90
47168;DHT22;32931;47.778;17.806;2024-02-23T05:16:47;10.50;99.90
47168;DHT22;32931;47.778;17.806;2024-02-23T05:19:13;10.50;99.90
47168;DHT22;32931;47.778;17.806;2024-02-23T05:21:39;10.50;99.90
47168;DHT22;32931;47.778;17.806;2024-02-23T05:24:05;10.30;99.90
47168;DHT22;32931;47.778;17.806;2024-02-23T05:26:32;10.20;99.90
47168;DHT22;32931;47.778;17.806;2024-02-23T05:28:58;10.20;99.90
47168;DHT22;32931;47.778;17.806;2024-02-23T05:31:45;10.20;99.90
47168;DHT22;32931;47.778;17.806;2024-02-23T05:34:12;10.10;99.90
47168;DHT22;32931;47.778;17.806;2024-02-23T05:36:38;10.10;99.90
47168;DHT22;32931;47.778;17.806;2024-02-23T05:39:04;10.00;99.90
47168;DHT22;32931;47.778;17.806;2024-02-23T05:41:31;9.90;99.90
47168;DHT22;32931;47.778;17.806;2024-02-23T05:43:57;9.80;99.90
47168;DHT22;32931;47.778;17.806;2024-02-23T05:46:23;9.70;99.90
47168;DHT22;32931;47.778;17.806;2024-02-23T05:48:49;9.60;99.90
47168;DHT22;32931;47.778;17.806;2024-02-23T05:51:15;9.50;99.90
47168;DHT22;32931;47.778;17.806;2024-02-23T05:53:41;9.40;99.90
47168;DHT22;32931;47.778;17.806;2024-02-23T05:56:07;9.40;99.90
47168;DHT22;32931;47.778;17.806;2024-02-23T05:58:33;9.30;99.90
47168;DHT22;32931;47.778;17.806;2024-02-23T06:01:00;9.20;99.90
47168;DHT22;32931;47.778;17.806;2024-02-23T06:03:26;9.20;99.90
47168;DHT22;32931;47.778;17.806;2024-02-23T06:05:52;9.20;99.90
47168;DHT22;32931;47.778;17.806;2024-02-23T06:08:20;9.20;99.90
47168;DHT22;32931;47.778;17.806;2024-02-23T06:10:46;9.10;99.90
47168;DHT22;32931;47.778;17.806;2024-02-23T06:13:12;9.00;99.90
47168;DHT22;32931;47.778;17.806;2024-02-23T06:15:38;9.00;99.90
47168;DHT22;32931;47.778;17.806;2024-02-23T06:18:05;9.00;99.90
47168;DHT22;32931;47.778;17.806;2024-02-23T06:20:31;9.00;99.90
47168;DHT22;32931;47.778;17.806;2024-02-23T06:22:57;9.00;99.90
47168;DHT22;32931;47.778;17.806;2024-02-23T06:25:24;9.00;99.90
47168;DHT22;32931;47.778;17.806;2024-02-23T06:27:50;9.00;99.90
47168;DHT22;32931;47.778;17.806;2024-02-23T06:30:16;9.00;99.90
47168;DHT22;32931;47.778;17.806;2024-02-23T06:32:42;9.00;99.90
47168;DHT22;32931;47.778;17.806;2024-02-23T06:35:08;9.00;99.90
47168;DHT22;32931;47.778;17.806;2024-02-23T06:37:35;8.90;99.90
47168;DHT22;32931;47.778;17.806;2024-02-23T06:40:01;8.90;99.90
47168;DHT22;32931;47.778;17.806;2024-02-23T06:42:27;8.90;99.90
47168;DHT22;32931;47.778;17.806;2024-02-23T06:44:53;8.90;99.90
47168;DHT22;32931;47.778;17.806;2024-02-23T06:47:19;8.80;99.90
47168;DHT22;32931;47.778;17.806;2024-02-23T06:49:46;8.80;99.90
47168;DHT22;32931;47.778;17.806;2024-02-23T06:52:12;8.90;99.90
47168;DHT22;32931;47.778;17.806;2024-02-23T06:54:38;8.90;99.90
47168;DHT22;32931;47.778;17.806;2024-02-23T06:57:06;8.90;99.90
47168;DHT22;32931;47.778;17.806;2024-02-23T06:59:32;8.90;99.90
47168;DHT22;32931;47.778;17.806;2024-02-23T07:01:58;8.90;99.90
47168;DHT22;32931;47.778;17.806;2024-02-23T07:04:24;8.90;99.90
47168;DHT22;32931;47.778;17.806;2024-02-23T07:06:51;8.90;99.90
47168;DHT22;32931;47.778;17.806;2024-02-23T07:09:17;8.90;99.90
47168;DHT22;32931;47.778;17.806;2024-02-23T07:11:43;9.00;99.90
47168;DHT22;32931;47.778;17.806;2024-02-23T07:14:11;9.00;99.90
47168;DHT22;32931;47.778;17.806;2024-02-23T07:16:40;9.10;99.90
47168;DHT22;32931;47.778;17.806;2024-02-23T07:19:07;9.10;99.90
47168;DHT22;32931;47.778;17.806;2024-02-23T07:21:33;9.10;99.90
47168;DHT22;32931;47.778;17.806;2024-02-23T07:24:00;9.10;99.90
47168;DHT22;32931;47.778;17.806;2024-02-23T07:26:26;9.10;99.90
47168;DHT22;32931;47.778;17.806;2024-02-23T07:28:55;9.20;99.90
47168;DHT22;32931;47.778;17.806;2024-02-23T07:31:21;9.20;99.90
47168;DHT22;32931;47.778;17.806;2024-02-23T07:33:47;9.20;99.90
47168;DHT22;32931;47.778;17.806;2024-02-23T07:36:19;9.20;99.90
47168;DHT22;32931;47.778;17.806;2024-02-23T07:38:47;9.30;99.90
47168;DHT22;32931;47.778;17.806;2024-02-23T07:41:14;9.20;99.90
47168;DHT22;32931;47.778;17.806;2024-02-23T07:43:41;9.20;99.90
47168;DHT22;32931;47.778;17.806;2024-02-23T07:46:07;9.30;99.90
47168;DHT22;32931;47.778;17.806;2024-02-23T07:48:35;9.30;99.90
47168;DHT22;32931;47.778;17.806;2024-02-23T07:51:03;9.30;99.90
47168;DHT22;32931;47.778;17.806;2024-02-23T07:53:29;9.30;99.90
47168;DHT22;32931;47.778;17.806;2024-02-23T07:55:56;9.30;99.90
47168;DHT22;32931;47.778;17.806;2024-02-23T07:58:25;9.30;99.90
47168;DHT22;32931;47.778;17.806;2024-02-23T08:00:54;9.30;99.90
47168;DHT22;32931;47.778;17.806;2024-02-23T08:03:20;9.40;99.90
47168;DHT22;32931;47.778;17.806;2024-02-23T08:05:46;9.40;99.90
47168;DHT22;32931;47.778;17.806;2024-02-23T08:08:13;9.50;99.90
47168;DHT22;32931;47.778;17.806;2024-02-23T08:10:39;9.50;99.90
47168;DHT22;32931;47.778;17.806;2024-02-23T08:13:05;9.50;99.90
47168;DHT22;32931;47.778;17.806;2024-02-23T08:15:31;9.50;99.90
47168;DHT22;32931;47.778;17.806;2024-02-23T08:17:57;9.60;99.90
47168;DHT22;32931;47.778;17.806;2024-02-23T08:20:23;9.60;99.90
47168;DHT22;32931;47.778;17.806;2024-02-23T08:22:50;9.70;99.90
47168;DHT22;32931;47.778;17.806;2024-02-23T08:25:16;9.70;99.90
47168;DHT22;32931;47.778;17.806;2024-02-23T08:27:42;9.70;99.90
47168;DHT22;32931;47.778;17.806;2024-02-23T08:30:09;9.70;99.90
47168;DHT22;32931;47.778;17.806;2024-02-23T08:32:36;9.80;99.90
47168;DHT22;32931;47.778;17.806;2024-02-23T08:35:03;9.80;99.90
47168;DHT22;32931;47.778;17.806;2024-02-23T08:37:29;9.80;99.90
47168;DHT22;32931;47.778;17.806;2024-02-23T08:39:55;9.90;99.90
47168;DHT22;32931;47.778;17.806;2024-02-23T08:42:22;9.90;99.90
47168;DHT22;32931;47.778;17.806;2024-02-23T08:44:48;10.00;99.90
47168;DHT22;32931;47.778;17.806;2024-02-23T08:47:14;9.90;99.90
47168;DHT22;32931;47.778;17.806;2024-02-23T08:49:40;10.00;99.90
47168;DHT22;32931;47.778;17.806;2024-02-23T08:52:06;10.00;99.90
47168;DHT22;32931;47.778;17.806;2024-02-23T08:54:33;10.00;99.90
47168;DHT22;32931;47.778;17.806;2024-02-23T08:56:59;10.00;99.90
47168;DHT22;32931;47.778;17.806;2024-02-23T08:59:25;10.10;99.90
47168;DHT22;32931;47.778;17.806;2024-02-23T09:01:51;10.10;99.90
47168;DHT22;32931;47.778;17.806;2024-02-23T09:04:17;10.10;99.90
47168;DHT22;32931;47.778;17.806;2024-02-23T09:06:43;10.20;99.90
47168;DHT22;32931;47.778;17.806;2024-02-23T09:09:09;10.20;99.90
47168;DHT22;32931;47.778;17.806;2024-02-23T09:11:36;10.20;99.90
47168;DHT22;32931;47.778;17.806;2024-02-23T09:14:03;10.20;99.90
47168;DHT22;32931;47.778;17.806;2024-02-23T09:16:29;10.30;99.90
47168;DHT22;32931;47.778;17.806;2024-02-23T09:18:55;10.30;99.90
47168;DHT22;32931;47.778;17.806;2024-02-23T09:21:21;10.40;99.90
47168;DHT22;32931;47.778;17.806;2024-02-23T09:23:47;10.40;99.90
47168;DHT22;32931;47.778;17.806;2024-02-23T09:26:13;10.50;99.90
47168;DHT22;32931;47.778;17.806;2024-02-23T09:28:39;10.60;99.90
47168;DHT22;32931;47.778;17.806;2024-02-23T09:31:11;10.60;99.90
47168;DHT22;32931;47.778;17.806;2024-02-23T09:33:37;10.70;99.90
47168;DHT22;32931;47.778;17.806;2024-02-23T09:36:03;10.80;99.90
47168;DHT22;32931;47.778;17.806;2024-02-23T09:38:29;10.90;99.90
47168;DHT22;32931;47.778;17.806;2024-02-23T09:40:58;11.00;99.90
47168;DHT22;32931;47.778;17.806;2024-02-23T09:43:29;11.10;99.90
47168;DHT22;32931;47.778;17.806;2024-02-23T09:45:56;11.20;99.90
47168;DHT22;32931;47.778;17.806;2024-02-23T09:48:23;11.20;99.90
47168;DHT22;32931;47.778;17.806;2024-02-23T09:50:52;11.30;99.90
47168;DHT22;32931;47.778;17.806;2024-02-23T09:53:19;11.40;99.90
47168;DHT22;32931;47.778;17.806;2024-02-23T09:55:48;11.50;99.90
47168;DHT22;32931;47.778;17.806;2024-02-23T09:58:17;11.50;99.90
47168;DHT22;32931;47.778;17.806;2024-02-23T10:00:43;11.30;99.90
47168;DHT22;32931;47.778;17.806;2024-02-23T10:03:09;11.20;99.90
47168;DHT22;32931;47.778;17.806;2024-02-23T10:05:36;11.20;99.90
47168;DHT22;32931;47.778;17.806;2024-02-23T10:08:02;11.30;99.90
47168;DHT22;32931;47.778;17.806;2024-02-23T10:10:35;11.30;99.90
47168;DHT22;32931;47.778;17.806;2024-02-23T10:13:02;11.30;99.90
47168;DHT22;32931;47.778;17.806;2024-02-23T10:15:30;11.30;99.90
47168;DHT22;32931;47.778;17.806;2024-02-23T10:17:59;11.40;99.90
47168;DHT22;32931;47.778;17.806;2024-02-23T10:20:25;11.40;99.90
47168;DHT22;32931;47.778;17.806;2024-02-23T10:22:52;11.40;99.90
47168;DHT22;32931;47.778;17.806;2024-02-23T10:25:19;11.40;99.90
47168;DHT22;32931;47.778;17.806;2024-02-23T10:27:46;11.40;99.90
47168;DHT22;32931;47.778;17.806;2024-02-23T10:30:13;11.40;99.90
47168;DHT22;32931;47.778;17.806;2024-02-23T10:32:41;11.40;99.90
47168;DHT22;32931;47.778;17.806;2024-02-23T10:35:11;11.50;99.90
47168;DHT22;32931;47.778;17.806;2024-02-23T10:37:42;11.50;99.90
47168;DHT22;32931;47.778;17.806;2024-02-23T10:40:11;11.40;99.90
47168;DHT22;32931;47.778;17.806;2024-02-23T10:42:38;11.40;99.90
47168;DHT22;32931;47.778;17.806;2024-02-23T10:45:06;11.40;99.90
47168;DHT22;32931;47.778;17.806;2024-02-23T10:47:34;11.50;99.90
47168;DHT22;32931;47.778;17.806;2024-02-23T10:50:01;11.60;99.90
47168;DHT22;32931;47.778;17.806;2024-02-23T10:52:29;11.70;99.90
47168;DHT22;32931;47.778;17.806;2024-02-23T10:54:55;11.80;99.90
47168;DHT22;32931;47.778;17.806;2024-02-23T10:57:22;11.90;99.90
47168;DHT22;32931;47.778;17.806;2024-02-23T10:59:48;12.00;99.90
47168;DHT22;32931;47.778;17.806;2024-02-23T11:02:18;12.10;99.90
47168;DHT22;32931;47.778;17.806;2024-02-23T11:04:49;12.20;99.90
47168;DHT22;32931;47.778;17.806;2024-02-23T11:07:19;12.20;99.90
47168;DHT22;32931;47.778;17.806;2024-02-23T11:10:00;12.30;99.90
47168;DHT22;32931;47.778;17.806;2024-02-23T11:12:29;12.30;99.90
47168;DHT22;32931;47.778;17.806;2024-02-23T11:14:59;12.40;99.90
47168;DHT22;32931;47.778;17.806;2024-02-23T11:17:33;12.50;99.90
47168;DHT22;32931;47.778;17.806;2024-02-23T11:20:04;12.50;99.90
47168;DHT22;32931;47.778;17.806;2024-02-23T11:22:32;12.60;99.90
47168;DHT22;32931;47.778;17.806;2024-02-23T11:25:08;12.60;99.90
47168;DHT22;32931;47.778;17.806;2024-02-23T11:27:36;12.70;99.90
47168;DHT22;32931;47.778;17.806;2024-02-23T11:30:07;12.70;99.90
47168;DHT22;32931;47.778;17.806;2024-02-23T11:35:07;12.70;99.90
47168;DHT22;32931;47.778;17.806;2024-02-23T11:37:53;12.70;99.90
47168;DHT22;32931;47.778;17.806;2024-02-23T11:40:26;12.80;99.90
47168;DHT22;32931;47.778;17.806;2024-02-23T11:42:54;12.80;99.90
47168;DHT22;32931;47.778;17.806;2024-02-23T11:45:21;12.80;99.90
47168;DHT22;32931;47.778;17.806;2024-02-23T11:47:48;12.90;99.90
47168;DHT22;32931;47.778;17.806;2024-02-23T11:50:14;12.90;99.90
47168;DHT22;32931;47.778;17.806;2024-02-23T11:52:45;12.90;99.90
47168;DHT22;32931;47.778;17.806;2024-02-23T11:55:12;12.90;99.90
47168;DHT22;32931;47.778;17.806;2024-02-23T11:57:38;12.90;99.90
47168;DHT22;32931;47.778;17.806;2024-02-23T12:00:05;12.80;99.90
47168;DHT22;32931;47.778;17.806;2024-02-23T12:02:34;12.80;99.90
47168;DHT22;32931;47.778;17.806;2024-02-23T12:05:01;12.80;99.90
47168;DHT22;32931;47.778;17.806;2024-02-23T12:07:29;12.70;99.90
47168;DHT22;32931;47.778;17.806;2024-02-23T12:09:56;12.70;99.90
47168;DHT22;32931;47.778;17.806;2024-02-23T12:12:24;12.60;99.90
47168;DHT22;32931;47.778;17.806;2024-02-23T12:14:51;12.60;99.90
47168;DHT22;32931;47.778;17.806;2024-02-23T12:17:17;12.60;99.90
47168;DHT22;32931;47.778;17.806;2024-02-23T12:19:44;12.50;99.90
47168;DHT22;32931;47.778;17.806;2024-02-23T12:22:10;12.50;99.90
47168;DHT22;32931;47.778;17.806;2024-02-23T12:24:38;12.50;99.90
47168;DHT22;32931;47.778;17.806;2024-02-23T12:27:06;12.50;99.90
47168;DHT22;32931;47.778;17.806;2024-02-23T12:29:32;12.40;99.90
47168;DHT22;32931;47.778;17.806;2024-02-23T12:32:07;12.40;99.90
47168;DHT22;32931;47.778;17.806;2024-02-23T12:34:34;12.40;99.90
47168;DHT22;32931;47.778;17.806;2024-02-23T12:37:02;12.40;99.90
47168;DHT22;32931;47.778;17.806;2024-02-23T12:39:29;12.40;99.90
47168;DHT22;32931;47.778;17.806;2024-02-23T12:41:55;12.30;99.90
47168;DHT22;32931;47.778;17.806;2024-02-23T12:44:22;12.30;99.90
47168;DHT22;32931;47.778;17.806;2024-02-23T12:46:49;12.30;99.90
47168;DHT22;32931;47.778;17.806;2024-02-23T12:49:15;12.30;99.90
47168;DHT22;32931;47.778;17.806;2024-02-23T12:51:42;12.30;99.90
47168;DHT22;32931;47.778;17.806;2024-02-23T12:54:08;12.30;99.90
47168;DHT22;32931;47.778;17.806;2024-02-23T12:56:34;12.30;99.90
47168;DHT22;32931;47.778;17.806;2024-02-23T12:59:01;12.30;99.90
47168;DHT22;32931;47.778;17.806;2024-02-23T13:01:27;12.30;99.90
47168;DHT22;32931;47.778;17.806;2024-02-23T13:03:53;12.20;99.90
47168;DHT22;32931;47.778;17.806;2024-02-23T13:06:19;12.20;99.90
47168;DHT22;32931;47.778;17.806;2024-02-23T13:08:45;12.20;99.90
47168;DHT22;32931;47.778;17.806;2024-02-23T13:11:12;12.20;99.90
47168;DHT22;32931;47.778;17.806;2024-02-23T13:13:38;12.20;99.90
47168;DHT22;32931;47.778;17.806;2024-02-23T13:16:05;12.20;99.90
47168;DHT22;32931;47.778;17.806;2024-02-23T13:18:31;12.20;99.90
47168;DHT22;32931;47.778;17.806;2024-02-23T13:20:57;12.20;99.90
47168;DHT22;32931;47.778;17.806;2024-02-23T13:23:23;12.20;99.90
47168;DHT22;32931;47.778;17.806;2024-02-23T13:25:49;12.20;99.90
47168;DHT22;32931;47.778;17.806;2024-02-23T13:28:15;12.20;99.90
47168;DHT22;32931;47.778;17.806;2024-02-23T13:30:41;12.10;99.90
47168;DHT22;32931;47.778;17.806;2024-02-23T13:33:08;12.10;99.90
47168;DHT22;32931;47.778;17.806;2024-02-23T13:35:36;12.10;99.90
47168;DHT22;32931;47.778;17.806;2024-02-23T13:38:02;12.10;99.90
47168;DHT22;32931;47.778;17.806;2024-02-23T13:40:31;12.10;99.90
47168;DHT22;32931;47.778;17.806;2024-02-23T13:42:57;12.10;99.90
47168;DHT22;32931;47.778;17.806;2024-02-23T13:45:23;12.10;99.90
47168;DHT22;32931;47.778;17.806;2024-02-23T13:48:03;12.00;99.90
47168;DHT22;32931;47.778;17.806;2024-02-23T13:50:31;12.00;99.90
47168;DHT22;32931;47.778;17.806;2024-02-23T13:52:58;12.00;99.90
47168;DHT22;32931;47.778;17.806;2024-02-23T13:55:24;12.10;99.90
47168;DHT22;32931;47.778;17.806;2024-02-23T13:57:50;12.00;99.90
47168;DHT22;32931;47.778;17.806;2024-02-23T14:00:17;12.00;99.90
47168;DHT22;32931;47.778;17.806;2024-02-23T14:02:44;12.00;99.90
47168;DHT22;32931;47.778;17.806;2024-02-23T14:05:10;12.00;99.90
47168;DHT22;32931;47.778;17.806;2024-02-23T14:07:37;12.00;99.90
47168;DHT22;32931;47.778;17.806;2024-02-23T14:10:03;12.00;99.90
47168;DHT22;32931;47.778;17.806;2024-02-23T14:12:30;12.00;99.90
47168;DHT22;32931;47.778;17.806;2024-02-23T14:14:56;12.10;99.90
47168;DHT22;32931;47.778;17.806;2024-02-23T14:17:22;12.10;99.90
47168;DHT22;32931;47.778;17.806;2024-02-23T14:19:48;12.00;99.90
47168;DHT22;32931;47.778;17.806;2024-02-23T14:22:16;12.00;99.90
47168;DHT22;32931;47.778;17.806;2024-02-23T14:24:43;12.00;99.90
47168;DHT22;32931;47.778;17.806;2024-02-23T14:27:09;12.00;99.90
47168;DHT22;32931;47.778;17.806;2024-02-23T14:29:35;12.00;99.90
47168;DHT22;32931;47.778;17.806;2024-02-23T14:32:02;12.00;99.90
47168;DHT22;32931;47.778;17.806;2024-02-23T14:34:29;12.00;99.90
47168;DHT22;32931;47.778;17.806;2024-02-23T14:36:56;11.90;99.90
47168;DHT22;32931;47.778;17.806;2024-02-23T14:39:23;11.90;99.90
47168;DHT22;32931;47.778;17.806;2024-02-23T14:41:50;11.90;99.90
47168;DHT22;32931;47.778;17.806;2024-02-23T14:44:16;11.90;99.90
47168;DHT22;32931;47.778;17.806;2024-02-23T14:46:42;11.90;99.90
47168;DHT22;32931;47.778;17.806;2024-02-23T14:49:08;11.80;99.90
47168;DHT22;32931;47.778;17.806;2024-02-23T14:51:34;11.80;99.90
47168;DHT22;32931;47.778;17.806;2024-02-23T14:54:01;11.80;99.90
47168;DHT22;32931;47.778;17.806;2024-02-23T14:56:28;11.80;99.90
47168;DHT22;32931;47.778;17.806;2024-02-23T14:58:54;11.80;99.90
47168;DHT22;32931;47.778;17.806;2024-02-23T15:01:20;11.80;99.90
47168;DHT22;32931;47.778;17.806;2024-02-23T15:03:47;11.80;99.90
47168;DHT22;32931;47.778;17.806;2024-02-23T15:06:13;11.80;99.90
47168;DHT22;32931;47.778;17.806;2024-02-23T15:08:39;11.90;99.90
47168;DHT22;32931;47.778;17.806;2024-02-23T15:11:06;11.80;99.90
47168;DHT22;32931;47.778;17.806;2024-02-23T15:13:32;11.90;99.90
47168;DHT22;32931;47.778;17.806;2024-02-23T15:15:58;11.80;99.90
47168;DHT22;32931;47.778;17.806;2024-02-23T15:18:25;11.80;99.90
47168;DHT22;32931;47.778;17.806;2024-02-23T15:20:51;11.80;99.90